Time;durP1;ratioP1;P1;durP2;ratioP2;P2;SDS_P1;SDS_P2;PMS_P1;PMS_P2;Temp;Humidity;BMP_temperature;BMP_pressure;BME280_temperature;BME280_humidity;BME280_pressure;Samples;Min_cycle;Max_cycle;Signal;HPM_P1;HPM_P2
2023/06/18 00:00:56;;;;;;;10.55;4.70;;;14.80;99.90;;;;;;5067236;28;20500;-62
2023/06/18 00:03:22;;;;;;;9.52;4.80;;;14.70;99.90;;;;;;5068187;28;20051;-62
2023/06/18 00:05:47;;;;;;;9.35;3.97;;;14.60;99.90;;;;;;5069177;28;20036;-62
2023/06/18 00:08:13;;;;;;;10.43;4.50;;;14.70;99.90;;;;;;5067574;28;20037;-62
2023/06/18 00:10:39;;;;;;;11.95;3.80;;;14.60;99.90;;;;;;5068106;28;20048;-62
2023/06/18 00:13:06;;;;;;;11.90;4.80;;;14.50;99.90;;;;;;5069453;28;20076;-62
2023/06/18 00:15:32;;;;;;;9.70;3.88;;;14.50;99.90;;;;;;5068496;28;20044;-61
2023/06/18 00:17:58;;;;;;;9.35;3.38;;;14.50;99.90;;;;;;5068988;28;20180;-61
2023/06/18 00:20:24;;;;;;;9.82;4.00;;;14.50;99.90;;;;;;5069219;28;20115;-62
2023/06/18 00:22:52;;;;;;;7.63;3.60;;;14.50;99.90;;;;;;5068400;28;20401;-61
2023/06/18 00:25:19;;;;;;;9.65;4.22;;;14.50;99.90;;;;;;5068994;28;20044;-61
2023/06/18 00:27:46;;;;;;;13.13;4.95;;;14.50;99.90;;;;;;5067405;28;20391;-62
2023/06/18 00:30:13;;;;;;;9.27;3.72;;;14.50;99.90;;;;;;5068867;28;20555;-62
2023/06/18 00:32:43;;;;;;;11.50;4.60;;;14.50;99.90;;;;;;5067964;28;20397;-61
2023/06/18 00:35:14;;;;;;;9.32;4.70;;;14.50;99.90;;;;;;5068368;28;20050;-61
2023/06/18 00:37:43;;;;;;;7.45;3.72;;;14.50;99.90;;;;;;5069009;28;20036;-61
2023/06/18 00:40:13;;;;;;;10.75;4.75;;;14.50;99.90;;;;;;5070630;28;20505;-62
2023/06/18 00:42:40;;;;;;;11.30;4.60;;;14.50;99.90;;;;;;5070745;28;20072;-61
2023/06/18 00:45:11;;;;;;;9.25;3.90;;;14.50;99.90;;;;;;5072406;28;20501;-62
2023/06/18 00:47:42;;;;;;;13.93;3.75;;;14.50;99.90;;;;;;5071539;28;20123;-61
2023/06/18 00:50:12;;;;;;;6.40;3.22;;;14.50;99.90;;;;;;5070620;28;20497;-61
2023/06/18 00:52:44;;;;;;;8.82;4.15;;;14.40;99.90;;;;;;5071137;28;20053;-61
2023/06/18 00:55:16;;;;;;;8.05;4.15;;;14.40;99.90;;;;;;5072382;28;20052;-61
2023/06/18 00:57:49;;;;;;;8.80;4.47;;;14.40;99.90;;;;;;5070500;28;20114;-61
2023/06/18 01:00:17;;;;;;;9.95;3.60;;;14.40;99.90;;;;;;5071251;28;20414;-62
2023/06/18 01:02:45;;;;;;;7.38;3.67;;;14.30;99.90;;;;;;5070622;28;20037;-62
2023/06/18 01:05:13;;;;;;;9.10;4.45;;;14.30;99.90;;;;;;5070929;28;20101;-61
2023/06/18 01:07:40;;;;;;;8.15;3.83;;;14.30;99.90;;;;;;5071151;28;20397;-61
2023/06/18 01:10:07;;;;;;;8.73;4.53;;;14.30;99.90;;;;;;5070191;28;20063;-62
2023/06/18 01:12:33;;;;;;;9.68;4.15;;;14.30;99.90;;;;;;5054402;28;20047;-62
2023/06/18 01:14:59;;;;;;;9.05;4.07;;;14.20;99.90;;;;;;5070968;28;20040;-62
2023/06/18 01:17:33;;;;;;;15.05;5.78;;;14.20;99.90;;;;;;5070291;28;20396;-62
2023/06/18 01:20:10;;;;;;;8.38;3.45;;;14.20;99.90;;;;;;5070861;28;20046;-62
2023/06/18 01:22:51;;;;;;;12.70;4.32;;;14.10;99.90;;;;;;5070688;28;20123;-62
2023/06/18 01:25:18;;;;;;;10.85;4.00;;;14.00;99.90;;;;;;5071246;28;20029;-62
2023/06/18 01:27:46;;;;;;;7.88;4.07;;;13.90;99.90;;;;;;5070545;28;20037;-61
2023/06/18 01:30:14;;;;;;;7.35;3.88;;;13.90;99.90;;;;;;5070685;28;20040;-62
2023/06/18 01:32:40;;;;;;;10.02;3.53;;;13.90;99.90;;;;;;5069944;28;20477;-61
2023/06/18 01:35:08;;;;;;;6.90;2.60;;;13.80;99.90;;;;;;5071631;28;20040;-62
2023/06/18 01:37:48;;;;;;;8.00;3.67;;;13.80;99.90;;;;;;5071212;28;20048;-61
2023/06/18 01:40:32;;;;;;;7.45;2.80;;;13.80;99.90;;;;;;5070461;28;20037;-62
2023/06/18 01:43:07;;;;;;;7.50;3.13;;;13.70;99.90;;;;;;5070287;28;20033;-61
2023/06/18 01:45:41;;;;;;;7.40;3.58;;;13.70;99.90;;;;;;5069635;28;20055;-61
2023/06/18 01:48:08;;;;;;;8.35;3.78;;;13.70;99.90;;;;;;5071655;28;20126;-61
2023/06/18 01:50:37;;;;;;;10.80;3.90;;;13.80;99.90;;;;;;5053503;28;20044;-61
2023/06/18 01:53:06;;;;;;;9.37;4.37;;;13.70;99.90;;;;;;5069256;28;20059;-61
2023/06/18 01:55:34;;;;;;;5.55;2.88;;;13.70;99.90;;;;;;5070301;28;20040;-62
2023/06/18 01:58:01;;;;;;;6.50;3.00;;;13.70;99.90;;;;;;5071171;28;20045;-61
2023/06/18 02:00:27;;;;;;;5.07;2.63;;;13.70;99.90;;;;;;5070461;28;20124;-61
2023/06/18 02:02:52;;;;;;;7.50;3.03;;;13.60;99.90;;;;;;5071102;28;20115;-62
2023/06/18 02:05:19;;;;;;;6.93;3.35;;;13.60;99.90;;;;;;5069958;28;20094;-61
2023/06/18 02:07:44;;;;;;;6.85;3.85;;;13.60;99.90;;;;;;5070532;28;20045;-61
2023/06/18 02:10:10;;;;;;;6.75;2.97;;;13.50;99.90;;;;;;5071007;28;20097;-61
2023/06/18 02:12:36;;;;;;;9.80;4.38;;;13.50;99.90;;;;;;5070253;28;20123;-61
2023/06/18 02:15:03;;;;;;;9.68;3.75;;;13.50;99.90;;;;;;5070813;28;20040;-61
2023/06/18 02:17:29;;;;;;;12.38;4.53;;;13.50;99.90;;;;;;5069487;28;20072;-62
2023/06/18 02:19:55;;;;;;;11.15;4.70;;;13.60;99.90;;;;;;5069110;28;20115;-61
2023/06/18 02:22:22;;;;;;;13.18;5.13;;;13.60;99.90;;;;;;5069708;28;20051;-61
2023/06/18 02:24:48;;;;;;;11.82;5.15;;;13.70;99.90;;;;;;5069449;28;20488;-61
2023/06/18 02:27:14;;;;;;;10.02;4.50;;;13.70;99.90;;;;;;5052356;28;20136;-62
2023/06/18 02:29:41;;;;;;;11.45;5.07;;;13.70;99.90;;;;;;5052663;28;20489;-62
2023/06/18 02:32:07;;;;;;;12.35;4.82;;;13.70;99.90;;;;;;5069113;28;20044;-62
2023/06/18 02:34:34;;;;;;;9.65;4.43;;;13.70;99.90;;;;;;5068899;28;20037;-61
2023/06/18 02:37:00;;;;;;;11.32;4.32;;;13.70;99.90;;;;;;5070401;28;20044;-61
2023/06/18 02:39:26;;;;;;;10.82;5.13;;;13.70;99.90;;;;;;5070320;28;20130;-61
2023/06/18 02:41:52;;;;;;;7.95;4.22;;;13.70;99.90;;;;;;5068633;28;20113;-61
2023/06/18 02:44:18;;;;;;;8.27;4.13;;;13.70;99.90;;;;;;5069001;28;20041;-61
2023/06/18 02:46:43;;;;;;;12.82;4.50;;;13.60;99.90;;;;;;5070343;28;20040;-61
2023/06/18 02:49:09;;;;;;;12.15;4.88;;;13.60;99.90;;;;;;5068327;28;20041;-61
2023/06/18 02:51:35;;;;;;;14.45;5.63;;;13.70;99.90;;;;;;5068705;28;20139;-61
2023/06/18 02:54:01;;;;;;;11.13;5.00;;;13.70;99.90;;;;;;5068774;28;20044;-61
2023/06/18 02:56:28;;;;;;;12.45;5.45;;;13.70;99.90;;;;;;5068187;28;20048;-61
2023/06/18 02:58:57;;;;;;;11.32;5.38;;;13.70;99.90;;;;;;5068956;28;20094;-61
2023/06/18 03:01:24;;;;;;;9.00;4.70;;;13.70;99.90;;;;;;5070044;28;20302;-61
2023/06/18 03:03:51;;;;;;;12.07;5.00;;;13.70;99.90;;;;;;5068891;28;20090;-61
2023/06/18 03:06:17;;;;;;;13.60;5.80;;;13.70;99.90;;;;;;5070420;28;20043;-61
2023/06/18 03:08:43;;;;;;;15.80;5.38;;;13.80;99.90;;;;;;5068262;28;20076;-61
2023/06/18 03:11:09;;;;;;;15.13;5.68;;;13.80;99.90;;;;;;5068612;28;20044;-61
2023/06/18 03:13:36;;;;;;;13.48;5.63;;;13.90;99.90;;;;;;5068419;28;20119;-62
2023/06/18 03:16:01;;;;;;;14.23;6.20;;;13.90;99.90;;;;;;5067887;28;20049;-61
2023/06/18 03:18:27;;;;;;;15.95;6.28;;;13.90;99.90;;;;;;5068646;28;20040;-61
2023/06/18 03:20:53;;;;;;;10.25;4.97;;;13.90;99.90;;;;;;5068562;28;20044;-61
2023/06/18 03:23:20;;;;;;;14.38;6.05;;;13.90;99.90;;;;;;5069015;28;20029;-61
2023/06/18 03:25:46;;;;;;;18.63;7.15;;;13.90;99.90;;;;;;5069548;28;20044;-61
2023/06/18 03:28:12;;;;;;;13.48;4.90;;;14.00;99.90;;;;;;5069799;28;20040;-61
2023/06/18 03:30:38;;;;;;;12.77;5.15;;;13.90;99.90;;;;;;5067637;28;20480;-61
2023/06/18 03:33:04;;;;;;;13.60;5.72;;;14.00;99.90;;;;;;5068521;28;20119;-61
2023/06/18 03:35:32;;;;;;;15.05;6.15;;;14.00;99.90;;;;;;5069492;28;20475;-61
2023/06/18 03:37:58;;;;;;;12.60;5.13;;;14.00;99.90;;;;;;5067832;28;20079;-61
2023/06/18 03:40:24;;;;;;;14.90;6.15;;;14.00;99.90;;;;;;5051486;28;20465;-61
2023/06/18 03:42:50;;;;;;;16.83;5.53;;;14.00;99.90;;;;;;5068463;28;20048;-61
2023/06/18 03:45:15;;;;;;;13.70;4.95;;;14.00;99.90;;;;;;5050875;28;20401;-61
2023/06/18 03:47:41;;;;;;;11.65;4.78;;;14.10;99.90;;;;;;5068410;28;20040;-61
2023/06/18 03:50:07;;;;;;;14.40;5.50;;;14.10;99.90;;;;;;5068106;28;20546;-61
2023/06/18 03:52:33;;;;;;;17.38;6.78;;;14.20;99.90;;;;;;5050528;28;20099;-61
2023/06/18 03:54:59;;;;;;;12.75;4.82;;;14.30;99.90;;;;;;5069327;28;20080;-61
2023/06/18 03:57:25;;;;;;;11.10;4.70;;;14.30;99.90;;;;;;5068000;28;20067;-61
2023/06/18 03:59:51;;;;;;;12.68;5.63;;;14.30;99.90;;;;;;5067431;28;20040;-61
2023/06/18 04:02:18;;;;;;;10.55;4.80;;;14.40;99.90;;;;;;5067884;28;20037;-61
2023/06/18 04:04:45;;;;;;;10.35;4.55;;;14.40;99.90;;;;;;5068938;28;20374;-61
2023/06/18 04:07:11;;;;;;;12.55;5.55;;;14.40;99.90;;;;;;5050918;28;20041;-61
2023/06/18 04:09:36;;;;;;;11.48;5.07;;;14.50;99.90;;;;;;5067823;28;20485;-61
2023/06/18 04:12:03;;;;;;;8.13;3.40;;;14.50;99.90;;;;;;5068238;28;20072;-61
2023/06/18 04:14:29;;;;;;;10.32;4.70;;;14.50;99.90;;;;;;5070569;28;20044;-61
2023/06/18 04:16:55;;;;;;;11.65;4.70;;;14.50;99.90;;;;;;5073949;28;20381;-61
2023/06/18 04:19:21;;;;;;;7.53;4.18;;;14.50;99.90;;;;;;5072202;28;20048;-61
2023/06/18 04:21:48;;;;;;;15.45;5.38;;;14.50;99.90;;;;;;5073828;28;20094;-60
2023/06/18 04:24:14;;;;;;;12.00;5.28;;;14.50;99.90;;;;;;5072621;28;20068;-61
2023/06/18 04:26:40;;;;;;;11.40;4.75;;;14.50;99.90;;;;;;5055548;28;20087;-61
2023/06/18 04:29:05;;;;;;;10.20;4.53;;;14.60;99.90;;;;;;5073934;28;20533;-61
2023/06/18 04:31:31;;;;;;;13.68;5.15;;;14.60;99.90;;;;;;5055767;28;20040;-61
2023/06/18 04:33:57;;;;;;;17.25;5.97;;;14.60;99.90;;;;;;5073296;28;20128;-61
2023/06/18 04:36:23;;;;;;;13.32;4.78;;;14.60;99.90;;;;;;5072617;28;20135;-61
2023/06/18 04:38:48;;;;;;;8.73;4.93;;;14.70;99.90;;;;;;5072000;28;20044;-62
2023/06/18 04:41:14;;;;;;;12.32;4.93;;;14.70;99.90;;;;;;5071769;28;20036;-61
2023/06/18 04:43:40;;;;;;;12.73;6.25;;;14.70;99.90;;;;;;5072223;28;20044;-61
2023/06/18 04:46:06;;;;;;;13.75;5.65;;;14.80;99.90;;;;;;5072514;28;20044;-61
2023/06/18 04:48:34;;;;;;;11.27;4.90;;;14.80;99.90;;;;;;5071546;28;20047;-61
2023/06/18 04:50:59;;;;;;;12.27;5.57;;;14.90;99.90;;;;;;5071747;28;20493;-61
2023/06/18 04:53:25;;;;;;;15.05;6.05;;;14.90;99.90;;;;;;5055566;28;20069;-61
2023/06/18 04:55:51;;;;;;;10.90;4.97;;;14.90;99.90;;;;;;5071773;28;20048;-61
2023/06/18 04:58:18;;;;;;;14.32;5.07;;;15.00;99.90;;;;;;5072292;28;20505;-61
2023/06/18 05:00:44;;;;;;;9.63;5.43;;;15.10;99.90;;;;;;5071701;28;20134;-61
2023/06/18 05:03:10;;;;;;;11.15;5.50;;;15.20;99.90;;;;;;5072791;28;20086;-61
2023/06/18 05:05:35;;;;;;;16.83;5.65;;;15.20;99.90;;;;;;5072176;28;20803;-61
2023/06/18 05:08:01;;;;;;;18.58;7.03;;;15.40;99.90;;;;;;5068149;28;20032;-61
2023/06/18 05:10:27;;;;;;;14.00;5.93;;;15.50;99.90;;;;;;5071300;28;20051;-62
2023/06/18 05:12:54;;;;;;;11.30;5.82;;;15.60;99.90;;;;;;5072824;28;20086;-62
2023/06/18 05:15:21;;;;;;;11.98;5.75;;;15.80;99.90;;;;;;5071405;28;20047;-61
2023/06/18 05:17:47;;;;;;;13.50;6.07;;;15.90;99.90;;;;;;5070846;28;20492;-62
2023/06/18 05:20:13;;;;;;;16.02;6.82;;;16.00;99.90;;;;;;5070618;28;20471;-62
2023/06/18 05:22:40;;;;;;;16.00;6.88;;;16.10;99.90;;;;;;5070820;28;20044;-61
2023/06/18 05:25:06;;;;;;;14.30;6.82;;;16.20;99.90;;;;;;5070944;28;20493;-62
2023/06/18 05:27:32;;;;;;;12.98;6.40;;;16.30;99.90;;;;;;5072178;28;20037;-61
2023/06/18 05:29:59;;;;;;;14.82;7.50;;;16.30;99.90;;;;;;5069635;28;20107;-62
2023/06/18 05:32:25;;;;;;;11.85;5.47;;;16.40;99.90;;;;;;5053790;28;20041;-61
2023/06/18 05:34:51;;;;;;;13.25;6.45;;;16.40;99.90;;;;;;5071551;28;20036;-62
2023/06/18 05:37:17;;;;;;;14.80;6.85;;;16.50;99.90;;;;;;5065765;28;20408;-61
2023/06/18 05:39:43;;;;;;;12.10;6.03;;;16.50;99.90;;;;;;5049085;28;20140;-61
2023/06/18 05:42:08;;;;;;;13.70;6.78;;;16.50;99.90;;;;;;5049863;28;20501;-61
2023/06/18 05:44:34;;;;;;;15.55;6.57;;;16.60;99.90;;;;;;5048995;28;20037;-61
2023/06/18 05:47:00;;;;;;;13.63;6.15;;;16.70;99.90;;;;;;5051363;28;20398;-61
2023/06/18 05:49:26;;;;;;;14.82;5.63;;;16.80;99.90;;;;;;5050174;28;21030;-61
2023/06/18 05:51:52;;;;;;;12.10;6.30;;;16.80;99.90;;;;;;5051395;28;20059;-61
2023/06/18 05:54:18;;;;;;;14.93;7.03;;;16.90;99.90;;;;;;5050029;28;20053;-61
2023/06/18 05:56:44;;;;;;;11.63;5.97;;;17.00;99.90;;;;;;5050602;28;20048;-61
2023/06/18 05:59:10;;;;;;;14.70;6.57;;;17.10;99.90;;;;;;5049894;28;20045;-61
2023/06/18 06:01:36;;;;;;;12.18;5.13;;;17.20;99.90;;;;;;5051061;28;20041;-61
2023/06/18 06:04:03;;;;;;;13.95;6.40;;;17.30;99.90;;;;;;5050536;28;20486;-61
2023/06/18 06:06:29;;;;;;;12.95;5.13;;;17.40;99.90;;;;;;5050097;28;20097;-61
2023/06/18 06:08:55;;;;;;;14.88;5.63;;;17.40;99.90;;;;;;5050059;28;20037;-61
2023/06/18 06:11:22;;;;;;;14.80;6.68;;;17.40;99.90;;;;;;5050678;28;20473;-61
2023/06/18 06:13:48;;;;;;;17.17;6.15;;;17.50;99.90;;;;;;5049729;28;20045;-61
2023/06/18 06:16:14;;;;;;;18.33;5.55;;;17.60;99.90;;;;;;5049595;28;20041;-62
2023/06/18 06:18:40;;;;;;;15.43;6.63;;;17.70;99.90;;;;;;5050514;28;20033;-62
2023/06/18 06:21:05;;;;;;;11.45;5.43;;;17.80;99.90;;;;;;5049654;28;20406;-62
2023/06/18 06:23:31;;;;;;;12.98;5.82;;;18.00;99.90;;;;;;5049511;28;20546;-61
2023/06/18 06:25:57;;;;;;;15.40;6.57;;;18.20;99.90;;;;;;5050592;28;20044;-62
2023/06/18 06:28:23;;;;;;;13.18;6.90;;;18.40;99.90;;;;;;5057603;28;20041;-62
2023/06/18 06:30:49;;;;;;;14.50;7.05;;;18.70;99.90;;;;;;5071126;28;20040;-62
2023/06/18 06:33:15;;;;;;;12.65;6.18;;;19.00;99.90;;;;;;5070766;28;20457;-62
2023/06/18 06:35:40;;;;;;;14.70;6.85;;;19.20;99.90;;;;;;5071119;28;20404;-62
2023/06/18 06:38:06;;;;;;;15.00;6.55;;;19.50;99.90;;;;;;5069006;28;20041;-62
2023/06/18 06:40:32;;;;;;;15.65;6.53;;;19.70;99.90;;;;;;5069432;28;20076;-63
2023/06/18 06:42:58;;;;;;;16.20;7.10;;;19.70;99.90;;;;;;5069859;28;20476;-62
2023/06/18 06:45:27;;;;;;;11.93;5.60;;;19.70;99.90;;;;;;5070791;28;20078;-62
2023/06/18 06:47:54;;;;;;;13.85;6.75;;;19.70;99.90;;;;;;5069680;28;20045;-62
2023/06/18 06:50:20;;;;;;;12.13;5.78;;;19.80;99.90;;;;;;5069541;28;20404;-62
2023/06/18 06:52:45;;;;;;;8.93;4.97;;;20.00;99.90;;;;;;5069051;28;20077;-62
2023/06/18 06:55:11;;;;;;;13.57;6.22;;;20.30;99.90;;;;;;5069759;28;20408;-62
2023/06/18 06:57:37;;;;;;;13.32;5.88;;;20.40;99.90;;;;;;5069617;28;20119;-64
2023/06/18 07:00:06;;;;;;;12.27;6.15;;;20.60;99.90;;;;;;5069310;28;20097;-62
2023/06/18 07:02:33;;;;;;;12.10;5.93;;;20.80;99.90;;;;;;5070013;28;20043;-62
2023/06/18 07:04:59;;;;;;;12.00;6.20;;;21.00;99.90;;;;;;5068861;28;20343;-63
2023/06/18 07:07:25;;;;;;;10.05;4.78;;;21.20;99.90;;;;;;5068293;28;20043;-62
2023/06/18 07:09:52;;;;;;;10.23;4.93;;;21.40;99.90;;;;;;5068928;28;20186;-62
2023/06/18 07:12:24;;;;;;;14.27;5.85;;;21.50;99.90;;;;;;5068925;28;20040;-62
2023/06/18 07:14:52;;;;;;;11.02;5.45;;;21.90;99.90;;;;;;5069502;28;20094;-62
2023/06/18 07:17:18;;;;;;;11.02;5.82;;;22.10;99.90;;;;;;5069945;28;20076;-62
2023/06/18 07:19:46;;;;;;;11.30;4.90;;;22.20;99.90;;;;;;5070029;28;20075;-63
2023/06/18 07:22:12;;;;;;;9.30;5.10;;;22.20;99.90;;;;;;5067999;28;20084;-63
2023/06/18 07:24:38;;;;;;;8.93;4.68;;;22.20;99.90;;;;;;5069950;28;20098;-63
2023/06/18 07:27:04;;;;;;;15.02;5.80;;;22.20;99.90;;;;;;5068735;28;20040;-63
2023/06/18 07:29:32;;;;;;;11.50;5.18;;;22.50;99.90;;;;;;5068089;28;20080;-63
2023/06/18 07:31:59;;;;;;;10.43;5.00;;;22.70;99.90;;;;;;5070242;28;20046;-63
2023/06/18 07:34:24;;;;;;;9.30;5.00;;;23.10;99.90;;;;;;5069502;28;20048;-63
2023/06/18 07:36:50;;;;;;;8.00;4.97;;;23.40;99.90;;;;;;5059571;28;20435;-62
2023/06/18 07:39:16;;;;;;;11.25;4.85;;;23.70;99.90;;;;;;5059153;28;20043;-63
2023/06/18 07:41:47;;;;;;;9.98;5.45;;;23.80;99.90;;;;;;5065557;28;20041;-63
2023/06/18 07:44:15;;;;;;;10.63;5.78;;;23.80;99.90;;;;;;5033226;28;20087;-63
2023/06/18 07:46:45;;;;;;;11.93;4.80;;;23.70;99.90;;;;;;5045999;28;20489;-62
2023/06/18 07:49:12;;;;;;;12.52;5.18;;;23.70;99.90;;;;;;5045396;28;20110;-63
2023/06/18 07:51:38;;;;;;;10.10;4.68;;;23.80;99.90;;;;;;5047312;28;20055;-63
2023/06/18 07:54:04;;;;;;;9.05;5.20;;;23.90;99.90;;;;;;5047266;28;20037;-63
2023/06/18 07:56:30;;;;;;;11.85;5.05;;;24.20;99.90;;;;;;5047530;28;20493;-63
2023/06/18 07:58:56;;;;;;;13.00;4.93;;;24.50;99.90;;;;;;5045979;28;20056;-62
2023/06/18 08:01:22;;;;;;;9.93;4.30;;;24.80;99.90;;;;;;5029537;28;20037;-64
2023/06/18 08:03:47;;;;;;;8.73;4.68;;;25.00;99.90;;;;;;5045343;28;20470;-63
2023/06/18 08:06:13;;;;;;;11.20;4.32;;;25.20;99.90;;;;;;5045881;28;20248;-62
2023/06/18 08:08:39;;;;;;;7.97;4.00;;;25.40;99.90;;;;;;5046107;28;20135;-63
2023/06/18 08:11:05;;;;;;;7.90;4.60;;;25.60;99.90;;;;;;5028968;28;20452;-63
2023/06/18 08:13:31;;;;;;;6.90;4.05;;;25.90;99.90;;;;;;5045960;28;20485;-62
2023/06/18 08:15:56;;;;;;;7.00;3.95;;;26.10;99.90;;;;;;5046048;28;20055;-63
2023/06/18 08:18:22;;;;;;;8.18;4.68;;;26.30;99.90;;;;;;5045270;28;20405;-63
2023/06/18 08:20:48;;;;;;;7.10;4.00;;;26.40;99.90;;;;;;5044823;28;20110;-63
2023/06/18 08:23:17;;;;;;;6.38;3.80;;;26.60;99.90;;;;;;5046651;28;20048;-62
2023/06/18 08:25:42;;;;;;;6.00;3.50;;;26.90;99.90;;;;;;5046419;28;20037;-63
2023/06/18 08:28:08;;;;;;;6.82;3.45;;;27.20;99.90;;;;;;5030640;28;20048;-63
2023/06/18 08:30:34;;;;;;;5.85;3.70;;;27.50;99.30;;;;;;5047507;28;20041;-63
2023/06/18 08:33:00;;;;;;;6.38;3.30;;;27.50;98.00;;;;;;5050263;28;20132;-62
2023/06/18 08:35:25;;;;;;;7.60;3.10;;;27.60;97.90;;;;;;5052269;28;20394;-62
2023/06/18 08:37:51;;;;;;;6.80;3.53;;;27.60;97.70;;;;;;5047721;28;20053;-63
2023/06/18 08:40:23;;;;;;;6.57;3.25;;;27.50;97.80;;;;;;5047989;28;20052;-62
2023/06/18 08:42:49;;;;;;;6.22;3.70;;;27.40;97.30;;;;;;5046128;28;20497;-63
2023/06/18 08:45:15;;;;;;;4.35;2.55;;;27.10;96.50;;;;;;5047788;28;20083;-63
2023/06/18 08:47:43;;;;;;;5.57;2.92;;;26.90;95.80;;;;;;5047102;28;20444;-62
2023/06/18 08:50:10;;;;;;;6.35;2.53;;;26.70;96.20;;;;;;5048569;28;20430;-63
2023/06/18 08:52:40;;;;;;;6.95;2.90;;;26.60;96.20;;;;;;5056638;28;20119;-63
2023/06/18 08:55:09;;;;;;;8.13;2.88;;;26.60;95.70;;;;;;5068308;28;20136;-63
2023/06/18 08:57:58;;;;;;;7.25;3.05;;;26.70;95.70;;;;;;5056528;28;20039;-62
2023/06/18 09:00:23;;;;;;;6.13;3.25;;;26.90;95.30;;;;;;5067564;28;20044;-62
2023/06/18 09:02:50;;;;;;;6.85;3.28;;;27.00;94.80;;;;;;5073449;28;20043;-62
2023/06/18 09:05:17;;;;;;;6.55;2.85;;;27.10;94.40;;;;;;5071987;28;20119;-62
2023/06/18 09:07:43;;;;;;;5.60;2.67;;;27.20;94.20;;;;;;5072641;28;20050;-63
2023/06/18 09:10:10;;;;;;;5.20;2.25;;;27.50;93.90;;;;;;5055407;28;20040;-63
2023/06/18 09:12:36;;;;;;;5.18;2.88;;;27.60;93.10;;;;;;5072654;28;20047;-63
2023/06/18 09:15:02;;;;;;;6.10;2.60;;;27.80;93.00;;;;;;5072082;28;20041;-63
2023/06/18 09:17:28;;;;;;;3.80;2.45;;;28.10;92.30;;;;;;5071743;28;20043;-63
2023/06/18 09:19:55;;;;;;;5.07;2.22;;;28.50;92.30;;;;;;5069295;28;20037;-63
2023/06/18 09:22:21;;;;;;;7.25;2.53;;;28.80;91.10;;;;;;5072983;28;20355;-64
2023/06/18 09:24:56;;;;;;;4.22;2.40;;;29.00;88.90;;;;;;5072809;28;20036;-63
2023/06/18 09:27:33;;;;;;;4.38;2.45;;;29.10;87.90;;;;;;5072581;28;20036;-63
2023/06/18 09:29:59;;;;;;;4.20;2.45;;;29.10;86.80;;;;;;5071751;28;20106;-64
2023/06/18 09:32:25;;;;;;;4.07;2.13;;;29.20;88.00;;;;;;5072939;28;20040;-63
2023/06/18 09:34:51;;;;;;;3.78;2.28;;;29.30;86.00;;;;;;5071190;28;20060;-63
2023/06/18 09:37:16;;;;;;;4.20;1.98;;;29.30;85.00;;;;;;5059762;28;20537;-63
2023/06/18 09:39:44;;;;;;;3.25;2.28;;;29.20;83.60;;;;;;5049739;28;20045;-63
2023/06/18 09:42:14;;;;;;;3.22;1.85;;;29.20;82.90;;;;;;5053193;28;20048;-64
2023/06/18 09:44:45;;;;;;;5.30;1.90;;;29.30;81.40;;;;;;5049957;28;20048;-64
2023/06/18 09:47:13;;;;;;;5.45;2.97;;;29.20;77.90;;;;;;5033139;28;20037;-64
2023/06/18 09:49:42;;;;;;;3.97;2.37;;;29.20;76.70;;;;;;5049387;28;20037;-63
2023/06/18 09:52:08;;;;;;;5.68;2.17;;;29.10;76.40;;;;;;5049362;28;20096;-63
2023/06/18 09:54:40;;;;;;;3.30;1.80;;;29.20;76.50;;;;;;5054743;28;20048;-64
2023/06/18 09:57:13;;;;;;;4.15;1.58;;;29.20;74.70;;;;;;5052569;28;20374;-63
2023/06/18 09:59:39;;;;;;;3.67;1.90;;;29.00;74.30;;;;;;5066231;28;20125;-64
2023/06/18 10:02:07;;;;;;;6.68;2.28;;;28.70;74.70;;;;;;5068763;28;20152;-62
2023/06/18 10:04:33;;;;;;;3.83;2.47;;;28.50;74.80;;;;;;5062301;28;20469;-63
2023/06/18 10:07:04;;;;;;;4.82;2.80;;;28.30;75.20;;;;;;5049416;28;20167;-64
2023/06/18 10:09:36;;;;;;;5.60;2.03;;;28.30;75.50;;;;;;5048906;28;20037;-64
2023/06/18 10:12:03;;;;;;;5.50;2.58;;;28.20;75.50;;;;;;5050003;28;20485;-62
2023/06/18 10:14:31;;;;;;;5.35;2.35;;;28.20;76.60;;;;;;5050523;28;20235;-64
2023/06/18 10:17:09;;;;;;;6.47;2.70;;;28.20;76.40;;;;;;5031637;28;20041;-63
2023/06/18 10:19:55;;;;;;;3.65;2.58;;;28.20;76.10;;;;;;5049467;28;20041;-63
2023/06/18 10:22:22;;;;;;;4.03;2.55;;;28.00;75.20;;;;;;5060661;28;20045;-63
2023/06/18 10:25:06;;;;;;;4.13;2.50;;;27.80;75.50;;;;;;5068754;28;20409;-64
2023/06/18 10:27:34;;;;;;;3.35;2.20;;;27.60;75.70;;;;;;5069175;28;20036;-63
2023/06/18 10:30:00;;;;;;;3.83;1.88;;;27.50;75.70;;;;;;5068588;28;20044;-64
2023/06/18 10:32:30;;;;;;;3.95;2.13;;;27.40;75.60;;;;;;5054893;28;20041;-63
2023/06/18 10:34:59;;;;;;;3.20;2.20;;;27.30;75.00;;;;;;5050498;28;20041;-63
2023/06/18 10:37:27;;;;;;;5.28;2.60;;;27.20;74.60;;;;;;5048524;28;20052;-63
2023/06/18 10:39:54;;;;;;;5.53;2.70;;;27.10;74.60;;;;;;5050315;28;20045;-63
2023/06/18 10:42:20;;;;;;;4.85;2.75;;;27.10;75.30;;;;;;5048590;28;20059;-63
2023/06/18 10:44:52;;;;;;;3.35;2.20;;;27.10;75.40;;;;;;5049376;28;20120;-63
2023/06/18 10:47:23;;;;;;;4.10;2.15;;;27.20;75.00;;;;;;5059333;28;20492;-64
2023/06/18 10:50:06;;;;;;;4.95;2.38;;;27.20;75.50;;;;;;5068888;28;20037;-63
2023/06/18 10:52:34;;;;;;;4.95;2.10;;;27.30;75.20;;;;;;5067961;28;20131;-64
2023/06/18 10:55:09;;;;;;;6.03;2.83;;;27.40;76.10;;;;;;5069609;28;20451;-63
2023/06/18 10:57:41;;;;;;;5.90;2.72;;;27.60;76.10;;;;;;5052437;28;20058;-64
2023/06/18 11:00:30;;;;;;;5.85;2.63;;;27.80;76.00;;;;;;5071037;28;20050;-63
2023/06/18 11:03:16;;;;;;;5.05;2.75;;;27.90;75.00;;;;;;5069960;28;20051;-62
2023/06/18 11:05:44;;;;;;;4.93;2.53;;;28.10;77.20;;;;;;5052502;28;20496;-63
2023/06/18 11:08:11;;;;;;;4.25;2.58;;;28.30;77.00;;;;;;5070000;28;20127;-63
2023/06/18 11:10:39;;;;;;;4.47;2.70;;;28.40;75.80;;;;;;5069903;28;20053;-63
2023/06/18 11:13:07;;;;;;;4.77;2.60;;;28.40;75.80;;;;;;5070549;28;20111;-64
2023/06/18 11:15:34;;;;;;;4.68;2.50;;;28.50;75.50;;;;;;5069392;28;20043;-63
2023/06/18 11:18:01;;;;;;;5.85;3.05;;;28.60;74.70;;;;;;5069558;28;20055;-65
2023/06/18 11:20:31;;;;;;;4.00;2.67;;;28.80;74.00;;;;;;5068923;28;20051;-62
2023/06/18 11:22:59;;;;;;;4.55;2.78;;;28.90;73.80;;;;;;5069402;28;20050;-65
2023/06/18 11:25:27;;;;;;;4.10;2.45;;;29.00;73.60;;;;;;5069459;28;20043;-63
2023/06/18 11:27:55;;;;;;;4.90;2.13;;;29.20;71.80;;;;;;5053120;28;20037;-65
2023/06/18 11:30:21;;;;;;;4.57;1.80;;;29.20;71.20;;;;;;5069619;28;20107;-63
2023/06/18 11:32:48;;;;;;;2.88;2.08;;;29.20;71.20;;;;;;5068750;28;20037;-64
2023/06/18 11:35:14;;;;;;;4.32;2.25;;;29.20;68.60;;;;;;5069471;28;20047;-63
2023/06/18 11:37:45;;;;;;;4.57;2.05;;;29.10;67.90;;;;;;5069141;28;20044;-64
2023/06/18 11:40:11;;;;;;;2.72;1.88;;;29.20;67.10;;;;;;5066961;28;20488;-64
2023/06/18 11:42:46;;;;;;;3.80;2.00;;;29.20;67.20;;;;;;5070437;28;20045;-64
2023/06/18 11:45:11;;;;;;;4.50;2.25;;;29.20;67.10;;;;;;5069485;28;20047;-63
2023/06/18 11:47:43;;;;;;;4.45;2.50;;;29.20;66.60;;;;;;5068910;28;20843;-64
2023/06/18 11:50:10;;;;;;;2.97;1.92;;;29.10;67.50;;;;;;5069150;28;20043;-62
2023/06/18 11:52:36;;;;;;;5.13;1.92;;;29.10;67.00;;;;;;5070263;28;20110;-62
2023/06/18 11:55:04;;;;;;;6.10;2.17;;;29.10;67.80;;;;;;5069701;28;20052;-64
2023/06/18 11:57:31;;;;;;;3.15;1.75;;;29.30;67.50;;;;;;5069149;28;20174;-64
2023/06/18 11:59:57;;;;;;;3.53;1.70;;;29.40;67.10;;;;;;5069090;28;20044;-63
2023/06/18 12:02:26;;;;;;;2.63;1.63;;;29.50;66.70;;;;;;5068349;28;20039;-63
2023/06/18 12:04:52;;;;;;;5.78;1.60;;;29.50;66.00;;;;;;5070559;28;20044;-63
2023/06/18 12:07:22;;;;;;;4.10;2.15;;;29.50;65.20;;;;;;5069292;28;20047;-63
2023/06/18 12:09:51;;;;;;;3.25;1.70;;;29.50;64.90;;;;;;5069698;28;20044;-64
2023/06/18 12:12:25;;;;;;;2.60;1.20;;;29.50;64.60;;;;;;5069113;28;20123;-63
2023/06/18 12:15:06;;;;;;;3.80;1.95;;;29.60;64.60;;;;;;5069828;28;20500;-63
2023/06/18 12:17:48;;;;;;;3.08;2.08;;;29.70;63.80;;;;;;5069014;28;20044;-64
2023/06/18 12:20:14;;;;;;;3.63;2.10;;;29.70;63.80;;;;;;5054680;28;20182;-63
2023/06/18 12:22:41;;;;;;;4.18;2.00;;;29.60;63.40;;;;;;5064180;28;20500;-63
2023/06/18 12:25:08;;;;;;;3.20;1.95;;;29.60;64.40;;;;;;5066398;28;20036;-62
2023/06/18 12:27:34;;;;;;;2.67;1.60;;;29.70;65.00;;;;;;5031099;28;20033;-63
2023/06/18 12:30:02;;;;;;;4.40;1.83;;;30.00;65.10;;;;;;5046755;28;20458;-62
2023/06/18 12:32:28;;;;;;;4.85;2.25;;;30.20;64.50;;;;;;5030819;28;20048;-62
2023/06/18 12:34:55;;;;;;;2.78;1.77;;;30.30;63.00;;;;;;5047367;28;20436;-63
2023/06/18 12:37:32;;;;;;;7.45;2.33;;;30.30;63.30;;;;;;5055544;28;20051;-64
2023/06/18 12:40:11;;;;;;;3.30;1.85;;;30.40;62.40;;;;;;5054916;28;20037;-64
2023/06/18 12:42:37;;;;;;;4.25;2.22;;;30.30;61.30;;;;;;5050629;28;20144;-65
2023/06/18 12:45:04;;;;;;;3.55;2.50;;;30.10;62.30;;;;;;5052342;28;20133;-64